sensor_id;sensor_type;location;lat;lon;timestamp;pressure;altitude;pressure_sealevel;temperature;humidity
78064;BME280;67429;51.596;-3.264;2023-02-01T00:00:41;100406.06;;;1.77;62.45
78064;BME280;67429;51.596;-3.264;2023-02-01T00:03:06;100411.47;;;2.05;62.96
78064;BME280;67429;51.596;-3.264;2023-02-01T00:05:32;100408.75;;;1.76;62.42
78064;BME280;67429;51.596;-3.264;2023-02-01T00:07:58;100411.53;;;2.29;62.20
78064;BME280;67429;51.596;-3.264;2023-02-01T00:10:23;100402.32;;;2.01;62.70
78064;BME280;67429;51.596;-3.264;2023-02-01T00:12:49;100401.22;;;1.71;61.97
78064;BME280;67429;51.596;-3.264;2023-02-01T00:15:15;100403.67;;;2.07;60.86
78064;BME280;67429;51.596;-3.264;2023-02-01T00:17:40;100404.38;;;2.20;60.57
78064;BME280;67429;51.596;-3.264;2023-02-01T00:20:07;100407.21;;;1.75;61.93
78064;BME280;67429;51.596;-3.264;2023-02-01T00:22:32;100401.46;;;1.95;61.67
78064;BME280;67429;51.596;-3.264;2023-02-01T00:24:57;100405.35;;;2.07;61.47
78064;BME280;67429;51.596;-3.264;2023-02-01T00:27:23;100405.14;;;1.88;61.04
78064;BME280;67429;51.596;-3.264;2023-02-01T00:29:49;100405.89;;;1.57;61.36
78064;BME280;67429;51.596;-3.264;2023-02-01T00:32:14;100400.22;;;2.11;61.24
78064;BME280;67429;51.596;-3.264;2023-02-01T00:34:41;100397.06;;;1.73;61.08
78064;BME280;67429;51.596;-3.264;2023-02-01T00:37:05;100401.25;;;2.25;60.31
78064;BME280;67429;51.596;-3.264;2023-02-01T00:39:31;100396.41;;;1.90;61.09
78064;BME280;67429;51.596;-3.264;2023-02-01T00:41:57;100399.85;;;2.15;61.29
78064;BME280;67429;51.596;-3.264;2023-02-01T00:44:23;100393.01;;;2.22;61.63
78064;BME280;67429;51.596;-3.264;2023-02-01T00:46:49;100392.39;;;1.94;61.33
78064;BME280;67429;51.596;-3.264;2023-02-01T00:49:15;100386.53;;;2.13;61.79
78064;BME280;67429;51.596;-3.264;2023-02-01T00:51:40;100381.72;;;2.06;61.33
78064;BME280;67429;51.596;-3.264;2023-02-01T00:54:06;100380.77;;;2.28;61.00
78064;BME280;67429;51.596;-3.264;2023-02-01T00:56:32;100382.82;;;1.76;62.04
78064;BME280;67429;51.596;-3.264;2023-02-01T00:58:57;100374.45;;;2.28;61.13
78064;BME280;67429;51.596;-3.264;2023-02-01T01:01:25;100379.18;;;2.09;61.50
78064;BME280;67429;51.596;-3.264;2023-02-01T01:03:50;100375.63;;;1.87;62.88
78064;BME280;67429;51.596;-3.264;2023-02-01T01:06:17;100374.08;;;1.84;62.07
78064;BME280;67429;51.596;-3.264;2023-02-01T01:08:41;100373.67;;;1.84;62.42
78064;BME280;67429;51.596;-3.264;2023-02-01T01:11:07;100377.20;;;1.91;62.81
78064;BME280;67429;51.596;-3.264;2023-02-01T01:13:32;100377.69;;;1.60;62.58
78064;BME280;67429;51.596;-3.264;2023-02-01T01:16:00;100379.66;;;1.81;63.10
78064;BME280;67429;51.596;-3.264;2023-02-01T01:18:24;100372.80;;;1.52;63.38
78064;BME280;67429;51.596;-3.264;2023-02-01T01:20:49;100374.99;;;1.48;64.04
78064;BME280;67429;51.596;-3.264;2023-02-01T01:23:15;100389.90;;;1.34;64.44
78064;BME280;67429;51.596;-3.264;2023-02-01T01:25:41;100386.52;;;1.40;63.51
78064;BME280;67429;51.596;-3.264;2023-02-01T01:28:07;100386.32;;;1.84;63.12
78064;BME280;67429;51.596;-3.264;2023-02-01T01:30:33;100378.93;;;1.67;63.97
78064;BME280;67429;51.596;-3.264;2023-02-01T01:32:58;100386.39;;;1.69;64.02
78064;BME280;67429;51.596;-3.264;2023-02-01T01:35:23;100387.25;;;1.85;63.35
78064;BME280;67429;51.596;-3.264;2023-02-01T01:37:49;100393.27;;;1.95;63.60
78064;BME280;67429;51.596;-3.264;2023-02-01T01:40:15;100397.98;;;2.00;63.43
78064;BME280;67429;51.596;-3.264;2023-02-01T01:42:42;100396.88;;;2.06;63.91
78064;BME280;67429;51.596;-3.264;2023-02-01T01:45:16;100401.29;;;1.65;65.17
78064;BME280;67429;51.596;-3.264;2023-02-01T01:47:37;100402.48;;;2.08;62.82
78064;BME280;67429;51.596;-3.264;2023-02-01T01:49:57;100399.64;;;1.88;63.70
78064;BME280;67429;51.596;-3.264;2023-02-01T01:52:23;100389.30;;;2.02;63.91
78064;BME280;67429;51.596;-3.264;2023-02-01T01:54:50;100387.32;;;1.79;65.20
78064;BME280;67429;51.596;-3.264;2023-02-01T01:57:16;100397.71;;;1.81;63.59
78064;BME280;67429;51.596;-3.264;2023-02-01T01:59:40;100394.69;;;1.84;64.59
78064;BME280;67429;51.596;-3.264;2023-02-01T02:02:04;100393.03;;;2.16;63.53
78064;BME280;67429;51.596;-3.264;2023-02-01T02:04:30;100400.17;;;1.74;65.10
78064;BME280;67429;51.596;-3.264;2023-02-01T02:06:59;100403.24;;;2.01;64.24
78064;BME280;67429;51.596;-3.264;2023-02-01T02:09:21;100400.77;;;1.58;64.07
78064;BME280;67429;51.596;-3.264;2023-02-01T02:11:47;100409.27;;;1.73;63.75
78064;BME280;67429;51.596;-3.264;2023-02-01T02:14:16;100409.29;;;2.12;63.99
78064;BME280;67429;51.596;-3.264;2023-02-01T02:16:52;100408.12;;;1.96;64.12
78064;BME280;67429;51.596;-3.264;2023-02-01T02:21:43;100400.89;;;1.58;64.23
78064;BME280;67429;51.596;-3.264;2023-02-01T02:24:10;100408.85;;;1.61;64.93
78064;BME280;67429;51.596;-3.264;2023-02-01T02:26:31;100416.03;;;1.69;64.50
78064;BME280;67429;51.596;-3.264;2023-02-01T02:31:28;100413.11;;;2.40;63.50
78064;BME280;67429;51.596;-3.264;2023-02-01T02:33:51;100418.75;;;2.17;62.88
78064;BME280;67429;51.596;-3.264;2023-02-01T02:36:09;100415.64;;;2.47;61.20
78064;BME280;67429;51.596;-3.264;2023-02-01T02:38:33;100409.87;;;2.83;61.45
78064;BME280;67429;51.596;-3.264;2023-02-01T02:41:03;100415.39;;;2.23;63.05
78064;BME280;67429;51.596;-3.264;2023-02-01T02:43:23;100406.13;;;2.28;63.13
78064;BME280;67429;51.596;-3.264;2023-02-01T02:45:50;100406.23;;;2.43;63.43
78064;BME280;67429;51.596;-3.264;2023-02-01T02:48:16;100406.62;;;2.28;62.93
78064;BME280;67429;51.596;-3.264;2023-02-01T02:50:39;100405.20;;;2.54;62.34
78064;BME280;67429;51.596;-3.264;2023-02-01T02:53:06;100397.50;;;2.72;62.00
78064;BME280;67429;51.596;-3.264;2023-02-01T02:55:30;100404.14;;;2.69;61.57
78064;BME280;67429;51.596;-3.264;2023-02-01T02:57:55;100403.49;;;2.43;62.94
78064;BME280;67429;51.596;-3.264;2023-02-01T03:00:22;100405.53;;;2.53;62.95
78064;BME280;67429;51.596;-3.264;2023-02-01T03:02:47;100407.19;;;2.64;63.53
78064;BME280;67429;51.596;-3.264;2023-02-01T03:05:11;100404.88;;;2.35;63.64
78064;BME280;67429;51.596;-3.264;2023-02-01T03:07:52;100412.00;;;2.44;63.40
78064;BME280;67429;51.596;-3.264;2023-02-01T03:10:06;100409.66;;;2.77;63.30
78064;BME280;67429;51.596;-3.264;2023-02-01T03:12:28;100412.20;;;2.73;62.62
78064;BME280;67429;51.596;-3.264;2023-02-01T03:14:59;100416.94;;;2.79;62.56
78064;BME280;67429;51.596;-3.264;2023-02-01T03:17:25;100420.42;;;2.49;63.39
78064;BME280;67429;51.596;-3.264;2023-02-01T03:19:46;100412.17;;;2.58;63.61
78064;BME280;67429;51.596;-3.264;2023-02-01T03:22:12;100404.83;;;2.67;62.76
78064;BME280;67429;51.596;-3.264;2023-02-01T03:24:40;100404.00;;;2.73;63.85
78064;BME280;67429;51.596;-3.264;2023-02-01T03:27:07;100401.39;;;2.80;63.24
78064;BME280;67429;51.596;-3.264;2023-02-01T03:29:33;100405.69;;;3.01;62.84
78064;BME280;67429;51.596;-3.264;2023-02-01T03:31:54;100404.98;;;3.11;62.39
78064;BME280;67429;51.596;-3.264;2023-02-01T03:34:19;100403.08;;;2.79;62.88
78064;BME280;67429;51.596;-3.264;2023-02-01T03:36:49;100406.82;;;2.93;62.17
78064;BME280;67429;51.596;-3.264;2023-02-01T03:39:16;100397.82;;;2.94;62.88
78064;BME280;67429;51.596;-3.264;2023-02-01T03:41:40;100398.75;;;3.24;62.82
78064;BME280;67429;51.596;-3.264;2023-02-01T03:44:08;100389.26;;;3.06;61.76
78064;BME280;67429;51.596;-3.264;2023-02-01T03:46:31;100397.65;;;3.06;62.00
78064;BME280;67429;51.596;-3.264;2023-02-01T03:48:54;100389.42;;;2.96;62.25
78064;BME280;67429;51.596;-3.264;2023-02-01T03:51:20;100392.69;;;2.91;62.64
78064;BME280;67429;51.596;-3.264;2023-02-01T03:53:46;100382.73;;;2.93;62.95
78064;BME280;67429;51.596;-3.264;2023-02-01T03:56:10;100384.96;;;3.34;60.94
78064;BME280;67429;51.596;-3.264;2023-02-01T03:58:36;100381.51;;;3.20;60.92
78064;BME280;67429;51.596;-3.264;2023-02-01T04:01:01;100389.47;;;2.87;63.81
78064;BME280;67429;51.596;-3.264;2023-02-01T04:03:28;100389.72;;;2.78;63.45
78064;BME280;67429;51.596;-3.264;2023-02-01T04:05:54;100397.13;;;2.82;63.14
78064;BME280;67429;51.596;-3.264;2023-02-01T04:08:20;100399.35;;;2.95;64.02
78064;BME280;67429;51.596;-3.264;2023-02-01T04:10:45;100401.33;;;2.37;64.21
78064;BME280;67429;51.596;-3.264;2023-02-01T04:13:10;100390.91;;;2.78;63.50
78064;BME280;67429;51.596;-3.264;2023-02-01T04:15:36;100387.12;;;2.87;64.17
78064;BME280;67429;51.596;-3.264;2023-02-01T04:18:02;100380.38;;;2.78;63.67
78064;BME280;67429;51.596;-3.264;2023-02-01T04:20:28;100374.69;;;3.02;63.42
78064;BME280;67429;51.596;-3.264;2023-02-01T04:22:53;100381.59;;;2.69;62.75
78064;BME280;67429;51.596;-3.264;2023-02-01T04:25:18;100380.29;;;2.81;62.96
78064;BME280;67429;51.596;-3.264;2023-02-01T04:27:43;100367.71;;;2.93;63.32
78064;BME280;67429;51.596;-3.264;2023-02-01T04:30:10;100368.20;;;2.93;62.50
78064;BME280;67429;51.596;-3.264;2023-02-01T04:32:34;100365.40;;;2.46;63.13
78064;BME280;67429;51.596;-3.264;2023-02-01T04:35:00;100380.37;;;3.39;61.17
78064;BME280;67429;51.596;-3.264;2023-02-01T04:37:26;100380.12;;;2.83;62.50
78064;BME280;67429;51.596;-3.264;2023-02-01T04:39:51;100384.39;;;2.64;63.31
78064;BME280;67429;51.596;-3.264;2023-02-01T04:42:17;100392.39;;;2.77;63.93
78064;BME280;67429;51.596;-3.264;2023-02-01T04:44:42;100394.91;;;2.50;64.40
78064;BME280;67429;51.596;-3.264;2023-02-01T04:47:08;100394.56;;;2.50;64.59
78064;BME280;67429;51.596;-3.264;2023-02-01T04:49:34;100397.04;;;2.42;64.81
78064;BME280;67429;51.596;-3.264;2023-02-01T04:52:00;100402.87;;;2.70;64.94
78064;BME280;67429;51.596;-3.264;2023-02-01T04:54:25;100407.12;;;2.40;64.81
78064;BME280;67429;51.596;-3.264;2023-02-01T04:56:51;100399.46;;;2.15;64.33
78064;BME280;67429;51.596;-3.264;2023-02-01T04:59:16;100394.63;;;2.29;64.21
78064;BME280;67429;51.596;-3.264;2023-02-01T05:01:42;100398.12;;;2.07;65.21
78064;BME280;67429;51.596;-3.264;2023-02-01T05:04:08;100401.21;;;1.95;65.20
78064;BME280;67429;51.596;-3.264;2023-02-01T05:06:34;100405.35;;;2.27;64.56
78064;BME280;67429;51.596;-3.264;2023-02-01T05:08:59;100405.10;;;2.78;63.79
78064;BME280;67429;51.596;-3.264;2023-02-01T05:11:25;100398.67;;;2.29;64.42
78064;BME280;67429;51.596;-3.264;2023-02-01T05:13:51;100388.69;;;2.40;64.56
78064;BME280;67429;51.596;-3.264;2023-02-01T05:16:16;100388.02;;;2.70;63.19
78064;BME280;67429;51.596;-3.264;2023-02-01T05:18:42;100388.14;;;2.65;64.18
78064;BME280;67429;51.596;-3.264;2023-02-01T05:21:08;100372.47;;;2.42;63.68
78064;BME280;67429;51.596;-3.264;2023-02-01T05:23:34;100368.89;;;2.43;63.55
78064;BME280;67429;51.596;-3.264;2023-02-01T05:26:00;100365.06;;;2.62;63.43
78064;BME280;67429;51.596;-3.264;2023-02-01T05:28:25;100358.78;;;2.55;63.31
78064;BME280;67429;51.596;-3.264;2023-02-01T05:30:51;100362.70;;;2.59;63.36
78064;BME280;67429;51.596;-3.264;2023-02-01T05:33:17;100354.17;;;2.37;62.67
78064;BME280;67429;51.596;-3.264;2023-02-01T05:35:43;100363.43;;;2.39;63.07
78064;BME280;67429;51.596;-3.264;2023-02-01T05:38:08;100363.21;;;2.31;63.24
78064;BME280;67429;51.596;-3.264;2023-02-01T05:40:34;100370.31;;;2.29;63.67
78064;BME280;67429;51.596;-3.264;2023-02-01T05:43:00;100362.94;;;2.41;64.39
78064;BME280;67429;51.596;-3.264;2023-02-01T05:45:25;100363.58;;;2.30;64.40
78064;BME280;67429;51.596;-3.264;2023-02-01T05:47:51;100364.96;;;2.21;64.73
78064;BME280;67429;51.596;-3.264;2023-02-01T05:50:17;100362.54;;;2.16;63.78
78064;BME280;67429;51.596;-3.264;2023-02-01T05:52:42;100353.98;;;2.14;63.60
78064;BME280;67429;51.596;-3.264;2023-02-01T05:55:08;100361.54;;;2.47;63.89
78064;BME280;67429;51.596;-3.264;2023-02-01T05:57:34;100366.20;;;1.99;64.22
78064;BME280;67429;51.596;-3.264;2023-02-01T06:00:00;100358.57;;;2.26;64.27
78064;BME280;67429;51.596;-3.264;2023-02-01T06:02:25;100363.91;;;2.66;63.45
78064;BME280;67429;51.596;-3.264;2023-02-01T06:04:51;100378.17;;;2.21;63.30
78064;BME280;67429;51.596;-3.264;2023-02-01T06:07:17;100378.35;;;1.99;64.84
78064;BME280;67429;51.596;-3.264;2023-02-01T06:09:42;100379.81;;;1.90;64.04
78064;BME280;67429;51.596;-3.264;2023-02-01T06:12:08;100376.29;;;2.26;64.35
78064;BME280;67429;51.596;-3.264;2023-02-01T06:14:34;100380.63;;;1.96;65.09
78064;BME280;67429;51.596;-3.264;2023-02-01T06:17:00;100379.62;;;2.06;64.61
78064;BME280;67429;51.596;-3.264;2023-02-01T06:19:26;100374.34;;;1.97;65.41
78064;BME280;67429;51.596;-3.264;2023-02-01T06:21:51;100374.30;;;1.64;64.69
78064;BME280;67429;51.596;-3.264;2023-02-01T06:24:17;100378.48;;;1.93;64.86
78064;BME280;67429;51.596;-3.264;2023-02-01T06:26:42;100375.96;;;2.26;64.36
78064;BME280;67429;51.596;-3.264;2023-02-01T06:29:10;100379.60;;;2.29;64.34
78064;BME280;67429;51.596;-3.264;2023-02-01T06:31:34;100381.34;;;2.45;64.26
78064;BME280;67429;51.596;-3.264;2023-02-01T06:34:00;100377.90;;;2.11;64.02
78064;BME280;67429;51.596;-3.264;2023-02-01T06:36:26;100376.37;;;2.17;64.60
78064;BME280;67429;51.596;-3.264;2023-02-01T06:38:51;100387.14;;;2.23;64.73
78064;BME280;67429;51.596;-3.264;2023-02-01T06:41:17;100392.76;;;2.44;64.63
78064;BME280;67429;51.596;-3.264;2023-02-01T06:43:42;100392.08;;;2.16;64.98
78064;BME280;67429;51.596;-3.264;2023-02-01T06:46:11;100392.76;;;2.07;63.96
78064;BME280;67429;51.596;-3.264;2023-02-01T06:48:34;100397.56;;;2.42;64.23
78064;BME280;67429;51.596;-3.264;2023-02-01T06:51:00;100400.16;;;2.43;64.34
78064;BME280;67429;51.596;-3.264;2023-02-01T06:53:25;100410.70;;;2.39;63.24
78064;BME280;67429;51.596;-3.264;2023-02-01T06:55:52;100415.38;;;2.45;63.90
78064;BME280;67429;51.596;-3.264;2023-02-01T06:58:17;100411.59;;;2.45;63.23
78064;BME280;67429;51.596;-3.264;2023-02-01T07:00:42;100412.28;;;2.57;62.53
78064;BME280;67429;51.596;-3.264;2023-02-01T07:03:08;100403.09;;;2.70;62.54
78064;BME280;67429;51.596;-3.264;2023-02-01T07:05:34;100401.74;;;3.17;62.05
78064;BME280;67429;51.596;-3.264;2023-02-01T07:07:59;100392.76;;;2.64;63.11
78064;BME280;67429;51.596;-3.264;2023-02-01T07:10:25;100385.53;;;2.78;62.98
78064;BME280;67429;51.596;-3.264;2023-02-01T07:12:51;100381.14;;;2.87;63.15
78064;BME280;67429;51.596;-3.264;2023-02-01T07:15:17;100378.43;;;2.64;63.36
78064;BME280;67429;51.596;-3.264;2023-02-01T07:17:42;100370.87;;;2.51;63.31
78064;BME280;67429;51.596;-3.264;2023-02-01T07:20:09;100368.33;;;2.99;63.38
78064;BME280;67429;51.596;-3.264;2023-02-01T07:22:34;100367.94;;;2.44;63.76
78064;BME280;67429;51.596;-3.264;2023-02-01T07:25:00;100364.68;;;2.34;64.68
78064;BME280;67429;51.596;-3.264;2023-02-01T07:27:24;100363.78;;;2.35;65.54
78064;BME280;67429;51.596;-3.264;2023-02-01T07:29:50;100358.15;;;2.43;65.95
78064;BME280;67429;51.596;-3.264;2023-02-01T07:32:16;100353.41;;;2.62;65.16
78064;BME280;67429;51.596;-3.264;2023-02-01T07:34:41;100349.03;;;2.70;65.49
78064;BME280;67429;51.596;-3.264;2023-02-01T07:37:07;100351.92;;;2.37;65.23
78064;BME280;67429;51.596;-3.264;2023-02-01T07:39:33;100352.09;;;2.22;65.42
78064;BME280;67429;51.596;-3.264;2023-02-01T07:41:58;100359.08;;;2.76;64.22
78064;BME280;67429;51.596;-3.264;2023-02-01T07:44:23;100362.30;;;2.95;64.98
78064;BME280;67429;51.596;-3.264;2023-02-01T07:46:49;100367.12;;;2.49;65.95
78064;BME280;67429;51.596;-3.264;2023-02-01T07:49:15;100368.77;;;2.33;65.47
78064;BME280;67429;51.596;-3.264;2023-02-01T07:51:41;100367.70;;;2.57;66.03
78064;BME280;67429;51.596;-3.264;2023-02-01T07:54:06;100373.45;;;2.64;65.62
78064;BME280;67429;51.596;-3.264;2023-02-01T07:56:32;100376.74;;;2.65;65.77
78064;BME280;67429;51.596;-3.264;2023-02-01T07:58:57;100381.68;;;2.29;65.58
78064;BME280;67429;51.596;-3.264;2023-02-01T08:01:25;100380.68;;;2.71;64.70
78064;BME280;67429;51.596;-3.264;2023-02-01T08:03:50;100382.11;;;2.53;64.80
78064;BME280;67429;51.596;-3.264;2023-02-01T08:06:14;100384.94;;;2.73;65.44
78064;BME280;67429;51.596;-3.264;2023-02-01T08:08:40;100388.72;;;2.79;65.55
78064;BME280;67429;51.596;-3.264;2023-02-01T08:11:07;100387.91;;;2.76;64.78
78064;BME280;67429;51.596;-3.264;2023-02-01T08:13:33;100388.31;;;2.90;64.30
78064;BME280;67429;51.596;-3.264;2023-02-01T08:15:58;100391.08;;;2.93;64.03
78064;BME280;67429;51.596;-3.264;2023-02-01T08:18:23;100397.52;;;3.08;64.35
78064;BME280;67429;51.596;-3.264;2023-02-01T08:20:48;100394.60;;;3.07;64.93
78064;BME280;67429;51.596;-3.264;2023-02-01T08:23:14;100395.93;;;3.04;64.05
78064;BME280;67429;51.596;-3.264;2023-02-01T08:25:40;100396.95;;;3.39;63.77
78064;BME280;67429;51.596;-3.264;2023-02-01T08:28:06;100389.81;;;2.99;64.33
78064;BME280;67429;51.596;-3.264;2023-02-01T08:30:31;100396.96;;;3.20;63.22
78064;BME280;67429;51.596;-3.264;2023-02-01T08:32:58;100398.37;;;3.25;63.95
78064;BME280;67429;51.596;-3.264;2023-02-01T08:35:23;100390.94;;;3.48;63.22
78064;BME280;67429;51.596;-3.264;2023-02-01T08:37:50;100393.08;;;3.19;63.58
78064;BME280;67429;51.596;-3.264;2023-02-01T08:40:15;100393.14;;;3.08;63.44
78064;BME280;67429;51.596;-3.264;2023-02-01T08:42:40;100403.96;;;3.38;62.89
78064;BME280;67429;51.596;-3.264;2023-02-01T08:45:07;100407.37;;;3.48;62.90
78064;BME280;67429;51.596;-3.264;2023-02-01T08:47:32;100405.75;;;3.41;63.16
78064;BME280;67429;51.596;-3.264;2023-02-01T08:49:57;100410.38;;;3.38;64.10
78064;BME280;67429;51.596;-3.264;2023-02-01T08:52:22;100404.21;;;3.11;64.09
78064;BME280;67429;51.596;-3.264;2023-02-01T08:54:48;100403.85;;;3.39;62.46
78064;BME280;67429;51.596;-3.264;2023-02-01T08:57:14;100408.80;;;3.33;63.44
78064;BME280;67429;51.596;-3.264;2023-02-01T08:59:40;100414.77;;;3.20;63.17
78064;BME280;67429;51.596;-3.264;2023-02-01T09:02:07;100421.87;;;3.26;62.80
78064;BME280;67429;51.596;-3.264;2023-02-01T09:04:31;100424.94;;;3.44;62.21
78064;BME280;67429;51.596;-3.264;2023-02-01T09:06:57;100425.64;;;3.89;61.35
78064;BME280;67429;51.596;-3.264;2023-02-01T09:09:22;100419.67;;;3.84;61.37
78064;BME280;67429;51.596;-3.264;2023-02-01T09:11:48;100423.37;;;3.65;61.83
78064;BME280;67429;51.596;-3.264;2023-02-01T09:14:13;100420.79;;;3.77;61.34
78064;BME280;67429;51.596;-3.264;2023-02-01T09:16:38;100424.80;;;3.84;61.32
78064;BME280;67429;51.596;-3.264;2023-02-01T09:19:04;100421.49;;;3.98;61.13
78064;BME280;67429;51.596;-3.264;2023-02-01T09:21:30;100421.92;;;4.00;60.69
78064;BME280;67429;51.596;-3.264;2023-02-01T09:23:56;100422.87;;;3.85;60.83
78064;BME280;67429;51.596;-3.264;2023-02-01T09:26:21;100420.35;;;4.12;61.59
78064;BME280;67429;51.596;-3.264;2023-02-01T09:28:47;100424.78;;;4.20;59.39
78064;BME280;67429;51.596;-3.264;2023-02-01T09:31:13;100421.08;;;4.04;61.16
78064;BME280;67429;51.596;-3.264;2023-02-01T09:33:38;100425.70;;;4.40;59.79
78064;BME280;67429;51.596;-3.264;2023-02-01T09:36:05;100427.02;;;4.29;60.15
78064;BME280;67429;51.596;-3.264;2023-02-01T09:38:31;100424.21;;;4.26;59.60
78064;BME280;67429;51.596;-3.264;2023-02-01T09:40:56;100425.44;;;4.52;60.02
78064;BME280;67429;51.596;-3.264;2023-02-01T09:43:32;100425.44;;;4.46;58.92
78064;BME280;67429;51.596;-3.264;2023-02-01T09:45:55;100424.90;;;4.75;58.87
78064;BME280;67429;51.596;-3.264;2023-02-01T09:48:14;100426.18;;;4.50;59.53
78064;BME280;67429;51.596;-3.264;2023-02-01T09:50:40;100426.52;;;4.76;59.74
78064;BME280;67429;51.596;-3.264;2023-02-01T09:53:09;100421.54;;;4.75;59.00
78064;BME280;67429;51.596;-3.264;2023-02-01T09:55:35;100416.80;;;4.46;58.62
78064;BME280;67429;51.596;-3.264;2023-02-01T09:57:59;100420.82;;;4.75;59.61
78064;BME280;67429;51.596;-3.264;2023-02-01T10:00:25;100422.67;;;5.41;57.93
78064;BME280;67429;51.596;-3.264;2023-02-01T10:02:46;100427.22;;;5.16;58.42
78064;BME280;67429;51.596;-3.264;2023-02-01T10:05:15;100418.84;;;5.04;58.45
78064;BME280;67429;51.596;-3.264;2023-02-01T10:07:44;100419.81;;;5.32;57.16
78064;BME280;67429;51.596;-3.264;2023-02-01T10:10:09;100410.61;;;5.90;56.18
78064;BME280;67429;51.596;-3.264;2023-02-01T10:12:47;100417.10;;;5.25;56.82
78064;BME280;67429;51.596;-3.264;2023-02-01T10:15:02;100418.05;;;5.33;56.90
78064;BME280;67429;51.596;-3.264;2023-02-01T10:17:31;100409.10;;;5.12;57.89
78064;BME280;67429;51.596;-3.264;2023-02-01T10:19:54;100417.35;;;5.77;56.65
78064;BME280;67429;51.596;-3.264;2023-02-01T10:22:19;100416.21;;;6.07;55.51
78064;BME280;67429;51.596;-3.264;2023-02-01T10:24:41;100414.16;;;6.53;54.04
78064;BME280;67429;51.596;-3.264;2023-02-01T10:27:14;100419.00;;;6.66;53.25
78064;BME280;67429;51.596;-3.264;2023-02-01T10:29:34;100422.06;;;6.47;54.43
78064;BME280;67429;51.596;-3.264;2023-02-01T10:31:55;100423.36;;;5.73;55.31
78064;BME280;67429;51.596;-3.264;2023-02-01T10:34:22;100422.66;;;5.52;56.14
78064;BME280;67429;51.596;-3.264;2023-02-01T10:36:54;100422.63;;;5.56;56.00
78064;BME280;67429;51.596;-3.264;2023-02-01T10:39:12;100432.45;;;6.08;55.45
78064;BME280;67429;51.596;-3.264;2023-02-01T10:41:39;100425.72;;;5.35;56.15
78064;BME280;67429;51.596;-3.264;2023-02-01T10:44:04;100436.66;;;4.91;57.23
78064;BME280;67429;51.596;-3.264;2023-02-01T10:46:29;100433.74;;;5.30;57.02
78064;BME280;67429;51.596;-3.264;2023-02-01T10:48:56;100434.45;;;5.11;57.30
78064;BME280;67429;51.596;-3.264;2023-02-01T10:51:22;100436.27;;;5.31;57.96
78064;BME280;67429;51.596;-3.264;2023-02-01T10:53:50;100443.90;;;5.44;56.72
78064;BME280;67429;51.596;-3.264;2023-02-01T10:56:12;100446.65;;;5.28;56.75
78064;BME280;67429;51.596;-3.264;2023-02-01T10:58:43;100452.39;;;5.64;56.28
78064;BME280;67429;51.596;-3.264;2023-02-01T11:01:03;100444.46;;;6.12;55.41
78064;BME280;67429;51.596;-3.264;2023-02-01T11:03:33;100458.55;;;5.01;57.40
78064;BME280;67429;51.596;-3.264;2023-02-01T11:05:55;100461.45;;;5.32;56.15
78064;BME280;67429;51.596;-3.264;2023-02-01T11:08:19;100463.37;;;5.46;57.05
78064;BME280;67429;51.596;-3.264;2023-02-01T11:10:44;100461.02;;;5.31;57.10
78064;BME280;67429;51.596;-3.264;2023-02-01T11:13:14;100465.71;;;5.18;56.84
78064;BME280;67429;51.596;-3.264;2023-02-01T11:15:36;100461.87;;;4.90;58.13
78064;BME280;67429;51.596;-3.264;2023-02-01T11:18:14;100458.23;;;5.12;57.88
78064;BME280;67429;51.596;-3.264;2023-02-01T11:20:35;100454.10;;;4.52;59.68
78064;BME280;67429;51.596;-3.264;2023-02-01T11:22:54;100449.70;;;4.67;59.40
78064;BME280;67429;51.596;-3.264;2023-02-01T11:25:18;100454.04;;;4.75;59.48
78064;BME280;67429;51.596;-3.264;2023-02-01T11:27:44;100461.68;;;5.09;57.75
78064;BME280;67429;51.596;-3.264;2023-02-01T11:30:16;100450.87;;;5.17;57.33
78064;BME280;67429;51.596;-3.264;2023-02-01T11:32:35;100445.87;;;5.59;56.42
78064;BME280;67429;51.596;-3.264;2023-02-01T11:35:03;100447.14;;;5.22;57.45
78064;BME280;67429;51.596;-3.264;2023-02-01T11:37:30;100440.81;;;5.07;58.80
78064;BME280;67429;51.596;-3.264;2023-02-01T11:39:56;100435.30;;;5.23;58.00
78064;BME280;67429;51.596;-3.264;2023-02-01T11:42:17;100432.95;;;5.16;58.51
78064;BME280;67429;51.596;-3.264;2023-02-01T11:44:44;100427.55;;;5.19;57.74
78064;BME280;67429;51.596;-3.264;2023-02-01T11:47:21;100430.12;;;5.22;57.81
78064;BME280;67429;51.596;-3.264;2023-02-01T11:49:35;100428.42;;;5.15;57.92
78064;BME280;67429;51.596;-3.264;2023-02-01T11:52:09;100426.01;;;5.35;57.50
78064;BME280;67429;51.596;-3.264;2023-02-01T11:54:38;100426.35;;;5.42;56.76
78064;BME280;67429;51.596;-3.264;2023-02-01T11:57:02;100425.58;;;5.06;57.60
78064;BME280;67429;51.596;-3.264;2023-02-01T11:59:30;100422.22;;;5.77;56.17
78064;BME280;67429;51.596;-3.264;2023-02-01T12:01:54;100425.15;;;6.50;54.11
78064;BME280;67429;51.596;-3.264;2023-02-01T12:06:44;100425.52;;;5.66;54.91
78064;BME280;67429;51.596;-3.264;2023-02-01T12:09:11;100428.15;;;6.35;54.75
78064;BME280;67429;51.596;-3.264;2023-02-01T12:11:34;100427.28;;;6.17;55.46
78064;BME280;67429;51.596;-3.264;2023-02-01T12:14:12;100420.38;;;6.30;54.50
78064;BME280;67429;51.596;-3.264;2023-02-01T12:16:27;100426.62;;;6.81;53.28
78064;BME280;67429;51.596;-3.264;2023-02-01T12:18:55;100422.24;;;5.81;54.82
78064;BME280;67429;51.596;-3.264;2023-02-01T12:21:21;100423.78;;;5.79;55.07
78064;BME280;67429;51.596;-3.264;2023-02-01T12:23:44;100430.61;;;5.72;55.62
78064;BME280;67429;51.596;-3.264;2023-02-01T12:26:07;100435.44;;;5.92;55.75
78064;BME280;67429;51.596;-3.264;2023-02-01T12:28:34;100426.44;;;5.79;55.53
78064;BME280;67429;51.596;-3.264;2023-02-01T12:30:59;100428.90;;;5.96;55.19
78064;BME280;67429;51.596;-3.264;2023-02-01T12:33:22;100428.93;;;6.64;54.14
78064;BME280;67429;51.596;-3.264;2023-02-01T12:35:51;100429.56;;;6.27;53.74
78064;BME280;67429;51.596;-3.264;2023-02-01T12:38:17;100428.34;;;5.72;56.34
78064;BME280;67429;51.596;-3.264;2023-02-01T12:40:43;100429.60;;;5.33;57.50
78064;BME280;67429;51.596;-3.264;2023-02-01T12:43:00;100421.08;;;5.15;57.22
78064;BME280;67429;51.596;-3.264;2023-02-01T12:45:30;100414.15;;;5.40;57.04
78064;BME280;67429;51.596;-3.264;2023-02-01T12:47:51;100407.70;;;5.70;55.76